createdAt,value
2018-03-31T00:00:48.633Z,59.90
2018-03-31T00:03:15.114Z,59.90
2018-03-31T00:05:41.776Z,59.90
2018-03-31T00:08:08.552Z,60.00
2018-03-31T00:10:35.087Z,60.00
2018-03-31T00:13:01.544Z,60.00
2018-03-31T00:15:27.999Z,60.00
2018-03-31T00:17:54.500Z,60.00
2018-03-31T00:20:20.952Z,60.00
2018-03-31T00:22:47.448Z,60.00
2018-03-31T00:25:14.035Z,60.00
2018-03-31T00:27:40.495Z,60.00
2018-03-31T00:30:06.973Z,60.70
2018-03-31T00:32:34.406Z,60.00
2018-03-31T00:35:01.698Z,60.00
2018-03-31T00:37:28.194Z,60.00
2018-03-31T00:39:55.423Z,60.00
2018-03-31T00:42:21.894Z,60.00
2018-03-31T00:44:48.366Z,60.00
2018-03-31T00:47:14.813Z,60.00
2018-03-31T00:49:41.280Z,60.00
2018-03-31T00:52:08.658Z,60.00
2018-03-31T00:54:35.164Z,60.00
2018-03-31T00:57:01.623Z,60.00
2018-03-31T00:59:28.104Z,60.00
2018-03-31T01:01:54.547Z,60.00
2018-03-31T01:04:21.181Z,60.10
2018-03-31T01:06:47.706Z,60.00
2018-03-31T01:09:14.210Z,60.00
2018-03-31T01:11:41.482Z,60.00
2018-03-31T01:14:10.555Z,60.00
2018-03-31T01:16:39.907Z,60.00
2018-03-31T01:19:08.852Z,60.00
2018-03-31T01:21:37.411Z,60.00
2018-03-31T01:24:05.308Z,60.00
2018-03-31T01:26:32.834Z,60.00
2018-03-31T01:28:59.364Z,60.00
2018-03-31T01:31:26.658Z,60.00
2018-03-31T01:33:53.915Z,60.10
2018-03-31T01:36:20.579Z,60.00
2018-03-31T01:38:47.868Z,60.00
2018-03-31T01:41:15.098Z,59.90
2018-03-31T01:43:41.575Z,59.90
2018-03-31T01:46:08.826Z,60.00
2018-03-31T01:48:35.426Z,60.00
2018-03-31T01:51:02.753Z,59.90
2018-03-31T01:53:29.284Z,59.90
2018-03-31T01:55:56.542Z,60.00
2018-03-31T01:58:23.045Z,60.00
2018-03-31T02:00:49.503Z,60.00
2018-03-31T02:03:15.991Z,60.00
2018-03-31T02:05:42.433Z,60.70
2018-03-31T02:08:08.911Z,60.00
2018-03-31T02:10:35.401Z,60.00
2018-03-31T02:13:01.871Z,60.00
2018-03-31T02:15:29.138Z,60.00
2018-03-31T02:17:55.593Z,60.00
2018-03-31T02:20:22.097Z,60.00
2018-03-31T02:22:48.544Z,60.00
2018-03-31T02:25:15.031Z,60.00
2018-03-31T02:27:41.489Z,60.00
2018-03-31T02:30:07.987Z,59.90
2018-03-31T02:32:34.451Z,59.90
2018-03-31T02:35:00.934Z,59.90
2018-03-31T02:37:28.140Z,60.00
2018-03-31T02:39:54.641Z,60.00
2018-03-31T02:42:21.081Z,59.90
2018-03-31T02:44:47.576Z,59.90
2018-03-31T02:47:14.811Z,60.00
2018-03-31T02:49:41.280Z,60.00
2018-03-31T02:52:07.735Z,60.00
2018-03-31T02:54:34.218Z,59.90
2018-03-31T02:57:00.685Z,59.90
2018-03-31T02:59:27.953Z,60.00
2018-03-31T03:01:55.176Z,59.90
2018-03-31T03:04:21.656Z,59.90
2018-03-31T03:06:48.133Z,60.00
2018-03-31T03:09:14.612Z,59.90
2018-03-31T03:11:41.832Z,59.90
2018-03-31T03:14:08.326Z,59.90
2018-03-31T03:16:35.600Z,60.00
2018-03-31T03:19:02.073Z,60.00
2018-03-31T03:21:28.536Z,59.90
2018-03-31T03:23:55.024Z,60.00
2018-03-31T03:26:21.496Z,60.00
2018-03-31T03:28:47.993Z,60.00
2018-03-31T03:31:14.455Z,59.90
2018-03-31T03:33:40.947Z,59.90
2018-03-31T03:36:07.400Z,59.90
2018-03-31T03:38:34.661Z,59.90
2018-03-31T03:41:01.104Z,59.90
2018-03-31T03:43:27.587Z,59.80
2018-03-31T03:45:54.811Z,59.90
2018-03-31T03:48:21.282Z,59.90
2018-03-31T03:50:47.734Z,59.90
2018-03-31T03:53:14.180Z,59.80
2018-03-31T03:55:40.653Z,59.90
2018-03-31T03:58:07.128Z,59.80
2018-03-31T04:00:33.625Z,59.80
2018-03-31T04:03:00.863Z,59.90
2018-03-31T04:05:27.344Z,59.80
2018-03-31T04:07:54.566Z,60.00
2018-03-31T04:10:21.066Z,59.80
2018-03-31T04:12:47.512Z,59.90
2018-03-31T04:15:13.976Z,59.90
2018-03-31T04:17:40.426Z,59.90
2018-03-31T04:20:06.932Z,59.90
2018-03-31T04:22:33.437Z,59.80
2018-03-31T04:24:59.935Z,59.80
2018-03-31T04:27:27.163Z,59.80
2018-03-31T04:29:53.660Z,59.80
2018-03-31T04:32:20.125Z,59.80
2018-03-31T04:34:47.378Z,59.80
2018-03-31T04:37:13.838Z,60.40
2018-03-31T04:39:40.306Z,59.80
2018-03-31T04:42:06.744Z,59.80
2018-03-31T04:44:33.228Z,59.80
2018-03-31T04:47:00.460Z,59.80
2018-03-31T04:49:26.969Z,59.80
2018-03-31T04:51:54.205Z,59.80
2018-03-31T04:54:20.712Z,60.50
2018-03-31T04:56:47.933Z,59.80
2018-03-31T04:59:14.422Z,59.80
2018-03-31T05:01:40.875Z,60.40
2018-03-31T05:04:07.359Z,59.70
2018-03-31T05:06:34.578Z,59.80
2018-03-31T05:09:01.064Z,59.80
2018-03-31T05:11:27.540Z,59.80
2018-03-31T05:13:54.008Z,59.80
2018-03-31T05:16:21.241Z,59.90
2018-03-31T05:18:47.736Z,59.70
2018-03-31T05:21:14.202Z,59.80
2018-03-31T05:23:40.682Z,59.70
2018-03-31T05:26:07.137Z,59.80
2018-03-31T05:28:34.402Z,59.70
2018-03-31T05:31:02.546Z,59.70
2018-03-31T05:33:29.040Z,59.70
2018-03-31T05:35:55.512Z,59.70
2018-03-31T05:38:22.749Z,59.70
2018-03-31T05:40:49.225Z,59.70
2018-03-31T05:43:15.681Z,59.70
2018-03-31T05:45:42.162Z,59.60
2018-03-31T05:48:08.629Z,59.60
2018-03-31T05:50:35.884Z,59.70
2018-03-31T05:53:02.344Z,59.70
2018-03-31T05:55:28.827Z,59.70
2018-03-31T05:57:56.037Z,57.90
2018-03-31T06:00:22.538Z,57.90
2018-03-31T06:02:49.007Z,57.50
2018-03-31T06:05:15.487Z,57.50
2018-03-31T06:07:42.722Z,58.60
2018-03-31T06:10:09.224Z,58.60
2018-03-31T06:12:36.459Z,58.80
2018-03-31T06:15:02.981Z,58.80
2018-03-31T06:17:29.656Z,59.00
2018-03-31T06:19:56.155Z,59.10
2018-03-31T06:22:22.629Z,59.10
2018-03-31T06:24:49.870Z,59.10
2018-03-31T06:27:16.330Z,59.10
2018-03-31T06:29:42.815Z,59.30
2018-03-31T06:32:09.271Z,59.30
2018-03-31T06:34:35.740Z,59.30
2018-03-31T06:37:02.966Z,59.40
2018-03-31T06:39:31.108Z,59.40
2018-03-31T06:41:57.590Z,59.30
2018-03-31T06:44:24.075Z,59.50
2018-03-31T06:46:50.538Z,59.40
2018-03-31T06:49:17.020Z,59.50
2018-03-31T06:51:43.479Z,57.80
2018-03-31T06:54:09.956Z,58.80
2018-03-31T06:56:36.416Z,58.80
2018-03-31T06:59:02.902Z,58.80
2018-03-31T07:01:29.372Z,55.30
2018-03-31T07:03:55.861Z,57.30
2018-03-31T07:06:22.319Z,58.10
2018-03-31T07:08:48.812Z,58.50
2018-03-31T07:11:15.274Z,58.70
2018-03-31T07:13:42.527Z,59.00
2018-03-31T07:16:08.983Z,59.00
2018-03-31T07:18:35.460Z,59.20
2018-03-31T07:21:01.936Z,59.30
2018-03-31T07:23:29.183Z,59.40
2018-03-31T07:25:55.671Z,59.30
2018-03-31T07:28:22.911Z,59.50
2018-03-31T07:30:49.375Z,59.40
2018-03-31T07:33:15.849Z,59.60
2018-03-31T07:35:42.346Z,59.60
2018-03-31T07:38:08.818Z,59.60
2018-03-31T07:40:35.325Z,58.90
2018-03-31T07:43:01.783Z,58.40
2018-03-31T07:45:28.252Z,58.50
2018-03-31T07:47:55.475Z,58.50
2018-03-31T07:50:21.963Z,58.50
2018-03-31T07:52:48.411Z,58.70
2018-03-31T07:55:14.902Z,59.10
2018-03-31T07:57:41.348Z,58.90
2018-03-31T08:00:07.858Z,58.80
2018-03-31T08:02:34.348Z,58.70
2018-03-31T08:05:00.828Z,58.80
2018-03-31T08:07:27.282Z,58.70
2018-03-31T08:09:53.766Z,58.80
2018-03-31T08:12:21.017Z,58.70
2018-03-31T08:14:47.509Z,58.70
2018-03-31T08:17:13.952Z,58.70
2018-03-31T08:19:41.192Z,58.80
2018-03-31T08:22:07.659Z,58.80
2018-03-31T08:24:34.142Z,58.80
2018-03-31T08:27:01.360Z,59.20
2018-03-31T08:29:27.852Z,59.20
2018-03-31T08:31:54.311Z,59.20
2018-03-31T08:34:20.827Z,59.20
2018-03-31T08:36:47.277Z,59.30
2018-03-31T08:39:14.338Z,59.20
2018-03-31T08:41:41.578Z,59.30
2018-03-31T08:44:08.060Z,59.30
2018-03-31T08:46:35.295Z,59.40
2018-03-31T08:49:01.784Z,59.40
2018-03-31T08:51:28.237Z,59.50
2018-03-31T08:53:54.727Z,57.80
2018-03-31T08:56:21.190Z,56.70
2018-03-31T08:58:48.449Z,56.00
2018-03-31T09:01:15.680Z,56.70
2018-03-31T09:03:42.153Z,56.70
2018-03-31T09:06:08.608Z,57.20
2018-03-31T09:08:35.116Z,57.40
2018-03-31T09:11:02.335Z,57.70
2018-03-31T09:13:28.804Z,57.70
2018-03-31T09:15:55.271Z,57.70
2018-03-31T09:18:21.744Z,57.80
2018-03-31T09:20:48.225Z,57.90
2018-03-31T09:23:15.455Z,58.00
2018-03-31T09:25:41.957Z,57.90
2018-03-31T09:28:08.430Z,58.10
2018-03-31T09:30:34.900Z,58.00
2018-03-31T09:33:01.385Z,58.10
2018-03-31T09:35:27.888Z,58.20
2018-03-31T09:37:55.118Z,58.20
2018-03-31T09:40:21.590Z,58.00
2018-03-31T09:42:48.051Z,58.20
2018-03-31T09:45:14.556Z,58.20
2018-03-31T09:47:41.044Z,58.70
2018-03-31T09:50:07.540Z,58.30
2018-03-31T09:52:34.008Z,58.10
2018-03-31T09:55:01.256Z,58.10
2018-03-31T09:57:27.739Z,58.00
2018-03-31T09:59:54.995Z,57.80
2018-03-31T10:02:21.456Z,57.70
2018-03-31T10:04:48.643Z,57.60
2018-03-31T10:07:15.156Z,57.70
2018-03-31T10:09:41.659Z,57.60
2018-03-31T10:12:08.909Z,57.50
2018-03-31T10:14:35.508Z,57.50
2018-03-31T10:17:02.739Z,55.90
2018-03-31T10:19:29.232Z,55.90
2018-03-31T10:21:55.691Z,56.10
2018-03-31T10:24:22.177Z,56.30
2018-03-31T10:26:49.312Z,56.50
2018-03-31T10:29:15.841Z,56.70
2018-03-31T10:31:42.296Z,56.00
2018-03-31T10:34:08.781Z,55.80
2018-03-31T10:36:35.251Z,56.20
2018-03-31T10:39:01.733Z,56.20
2018-03-31T10:41:28.974Z,56.40
2018-03-31T10:43:55.452Z,56.40
2018-03-31T10:46:21.909Z,56.50
2018-03-31T10:48:48.409Z,56.50
2018-03-31T10:51:14.879Z,56.80
2018-03-31T10:53:41.372Z,57.00
2018-03-31T10:56:07.850Z,57.00
2018-03-31T10:58:35.112Z,57.50
2018-03-31T11:01:01.570Z,57.50
2018-03-31T11:03:28.073Z,57.40
2018-03-31T11:05:54.548Z,57.40
2018-03-31T11:08:21.026Z,57.60
2018-03-31T11:10:47.498Z,57.60
2018-03-31T11:13:13.960Z,57.40
2018-03-31T11:15:40.422Z,57.40
2018-03-31T11:18:06.880Z,57.40
2018-03-31T11:20:33.341Z,57.40
2018-03-31T11:22:59.910Z,55.40
2018-03-31T11:25:27.126Z,50.10
2018-03-31T11:27:53.599Z,50.10
2018-03-31T11:30:20.055Z,47.00
2018-03-31T11:32:46.502Z,49.40
2018-03-31T11:35:12.968Z,50.20
2018-03-31T11:37:39.422Z,50.90
2018-03-31T11:40:05.879Z,52.00
2018-03-31T11:42:32.361Z,52.00
2018-03-31T11:44:58.862Z,53.20
2018-03-31T11:47:27.112Z,53.00
2018-03-31T11:49:53.604Z,53.00
2018-03-31T11:52:20.060Z,53.20
2018-03-31T11:54:46.556Z,53.80
2018-03-31T11:57:13.003Z,54.00
2018-03-31T11:59:40.255Z,53.90
2018-03-31T12:02:06.735Z,53.90
2018-03-31T12:04:33.982Z,54.10
2018-03-31T12:07:00.446Z,54.00
2018-03-31T12:09:26.927Z,54.40
2018-03-31T12:11:54.149Z,54.50
2018-03-31T12:14:20.626Z,54.50
2018-03-31T12:16:47.090Z,54.30
2018-03-31T12:19:13.576Z,54.40
2018-03-31T12:21:40.799Z,55.10
2018-03-31T12:24:07.279Z,55.20
2018-03-31T12:26:33.738Z,54.90
2018-03-31T12:29:00.695Z,54.60
2018-03-31T12:31:27.153Z,54.70
2018-03-31T12:33:53.635Z,54.80
2018-03-31T12:36:20.094Z,55.10
2018-03-31T12:38:46.604Z,54.50
2018-03-31T12:41:13.060Z,54.50
2018-03-31T12:43:39.529Z,54.00
2018-03-31T12:46:06.003Z,55.40
2018-03-31T12:48:32.503Z,54.90
2018-03-31T12:50:59.201Z,52.00
2018-03-31T12:53:25.776Z,52.30
2018-03-31T12:55:52.239Z,52.70
2018-03-31T12:58:18.681Z,53.10
2018-03-31T13:00:45.148Z,52.20
2018-03-31T13:03:11.625Z,53.20
2018-03-31T13:05:38.105Z,53.80
2018-03-31T13:08:04.594Z,53.80
2018-03-31T13:10:31.097Z,54.00
2018-03-31T13:12:57.568Z,54.10
2018-03-31T13:15:24.043Z,54.20
2018-03-31T13:17:50.491Z,54.40
2018-03-31T13:20:16.982Z,54.30
2018-03-31T13:22:44.210Z,54.40
2018-03-31T13:25:10.695Z,54.40
2018-03-31T13:27:37.135Z,54.40
2018-03-31T13:30:03.636Z,54.60
2018-03-31T13:32:30.081Z,54.80
2018-03-31T13:34:57.338Z,55.20
2018-03-31T13:37:24.587Z,55.60
2018-03-31T13:39:51.061Z,55.60
2018-03-31T13:42:17.524Z,55.60
2018-03-31T13:44:44.020Z,55.70
2018-03-31T13:47:10.504Z,55.90
2018-03-31T13:49:36.974Z,55.20
2018-03-31T13:52:03.442Z,55.50
2018-03-31T13:54:30.071Z,55.50
2018-03-31T13:56:56.540Z,55.30
2018-03-31T13:59:23.009Z,55.70
2018-03-31T14:01:49.463Z,55.40
2018-03-31T14:04:15.932Z,55.60
2018-03-31T14:06:42.377Z,55.80
2018-03-31T14:09:08.879Z,55.70
2018-03-31T14:11:35.353Z,55.50
2018-03-31T14:14:01.851Z,55.20
2018-03-31T14:16:28.335Z,55.40
2018-03-31T14:18:54.833Z,55.50
2018-03-31T14:21:21.377Z,55.50
2018-03-31T14:23:48.676Z,55.60
2018-03-31T14:26:16.007Z,53.10
2018-03-31T14:28:42.531Z,53.10
2018-03-31T14:31:08.974Z,54.60
2018-03-31T14:33:35.764Z,55.60
2018-03-31T14:36:02.265Z,55.20
2018-03-31T14:38:28.722Z,55.30
2018-03-31T14:40:55.265Z,55.90
2018-03-31T14:43:21.716Z,55.80
2018-03-31T14:45:48.277Z,55.70
2018-03-31T14:48:14.729Z,55.70
2018-03-31T14:50:41.214Z,55.60
2018-03-31T14:53:07.663Z,56.00
2018-03-31T14:55:34.303Z,56.20
2018-03-31T14:58:00.773Z,56.10
2018-03-31T15:00:27.273Z,56.10
2018-03-31T15:02:53.752Z,56.40
2018-03-31T15:05:20.234Z,56.60
2018-03-31T15:07:46.706Z,56.80
2018-03-31T15:10:13.196Z,57.20
2018-03-31T15:12:39.678Z,57.30
2018-03-31T15:15:06.164Z,57.20
2018-03-31T15:17:33.387Z,56.60
2018-03-31T15:19:59.881Z,56.60
2018-03-31T15:22:26.355Z,56.10
2018-03-31T15:24:52.870Z,55.80
2018-03-31T15:27:19.331Z,55.80
2018-03-31T15:29:45.940Z,55.70
2018-03-31T15:32:12.582Z,55.70
2018-03-31T15:34:40.876Z,55.60
2018-03-31T15:37:07.448Z,55.60
2018-03-31T15:39:34.693Z,55.60
2018-03-31T15:42:01.150Z,55.40
2018-03-31T15:44:27.638Z,55.40
2018-03-31T15:46:54.283Z,55.40
2018-03-31T15:49:20.761Z,55.40
2018-03-31T15:51:47.250Z,55.40
2018-03-31T15:54:13.848Z,55.50
2018-03-31T15:56:40.316Z,55.60
2018-03-31T15:59:07.155Z,55.50
2018-03-31T16:01:33.663Z,55.60
2018-03-31T16:04:00.161Z,55.60
2018-03-31T16:06:26.639Z,55.40
2018-03-31T16:08:53.120Z,55.40
2018-03-31T16:11:19.636Z,55.50
2018-03-31T16:13:46.157Z,55.50
2018-03-31T16:16:12.623Z,55.50
2018-03-31T16:18:39.116Z,55.50
2018-03-31T16:21:05.563Z,55.50
2018-03-31T16:23:32.030Z,55.50
2018-03-31T16:25:58.505Z,55.50
2018-03-31T16:28:24.969Z,55.60
2018-03-31T16:30:51.467Z,55.50
2018-03-31T16:33:18.705Z,55.40
2018-03-31T16:35:45.359Z,55.30
2018-03-31T16:38:11.857Z,55.40
2018-03-31T16:40:38.342Z,55.40
2018-03-31T16:43:05.565Z,55.40
2018-03-31T16:45:32.195Z,55.30
2018-03-31T16:47:58.655Z,55.40
2018-03-31T16:50:25.144Z,55.40
2018-03-31T16:52:51.628Z,55.40
2018-03-31T16:55:18.121Z,55.50
2018-03-31T16:57:45.354Z,55.50
2018-03-31T17:00:11.872Z,55.40
2018-03-31T17:02:38.331Z,55.50
2018-03-31T17:05:04.824Z,55.60
2018-03-31T17:07:31.295Z,55.40
2018-03-31T17:09:57.793Z,55.50
2018-03-31T17:12:25.005Z,56.10
2018-03-31T17:14:51.481Z,55.40
2018-03-31T17:17:17.951Z,55.60
2018-03-31T17:19:44.921Z,55.60
2018-03-31T17:22:12.196Z,55.60
2018-03-31T17:24:38.668Z,55.50
2018-03-31T17:27:05.112Z,55.60
2018-03-31T17:29:31.605Z,55.60
2018-03-31T17:31:58.088Z,55.60
2018-03-31T17:34:24.581Z,55.70
2018-03-31T17:36:51.101Z,55.60
2018-03-31T17:39:17.574Z,55.60
2018-03-31T17:41:44.030Z,55.50
2018-03-31T17:44:10.517Z,55.70
2018-03-31T17:46:36.974Z,55.70
2018-03-31T17:49:03.445Z,55.70
2018-03-31T17:51:30.024Z,55.70
2018-03-31T17:53:57.271Z,56.20
2018-03-31T17:56:23.793Z,56.20
2018-03-31T17:58:50.434Z,56.00
2018-03-31T18:01:16.970Z,55.90
2018-03-31T18:03:43.494Z,56.00
2018-03-31T18:06:10.008Z,56.40
2018-03-31T18:08:36.451Z,56.30
2018-03-31T18:11:02.993Z,56.70
2018-03-31T18:13:29.440Z,55.90
2018-03-31T18:15:56.001Z,55.90
2018-03-31T18:18:22.469Z,55.90
2018-03-31T18:20:49.167Z,55.90
2018-03-31T18:23:16.402Z,55.80
2018-03-31T18:25:43.392Z,55.80
2018-03-31T18:28:10.405Z,55.70
2018-03-31T18:30:38.240Z,55.50
2018-03-31T18:33:05.165Z,55.50
2018-03-31T18:35:31.714Z,55.60
2018-03-31T18:37:58.160Z,55.60
2018-03-31T18:40:25.411Z,55.50
2018-03-31T18:42:51.871Z,55.50
2018-03-31T18:45:18.342Z,55.50
2018-03-31T18:47:44.802Z,55.40
2018-03-31T18:50:11.280Z,55.50
2018-03-31T18:52:38.512Z,55.40
2018-03-31T18:55:04.994Z,55.30
2018-03-31T18:57:31.474Z,55.30
2018-03-31T18:59:57.989Z,55.30
2018-03-31T19:02:24.454Z,55.30
2018-03-31T19:04:51.456Z,55.30
2018-03-31T19:07:17.960Z,55.30
2018-03-31T19:09:44.447Z,55.30
2018-03-31T19:12:10.893Z,55.20
2018-03-31T19:14:37.566Z,55.20
2018-03-31T19:17:04.827Z,55.20
2018-03-31T19:19:31.350Z,55.20
2018-03-31T19:21:57.816Z,55.30
2018-03-31T19:24:24.313Z,55.20
2018-03-31T19:26:50.765Z,55.20
2018-03-31T19:29:17.247Z,55.20
2018-03-31T19:31:43.703Z,55.10
2018-03-31T19:34:10.219Z,55.00
2018-03-31T19:36:36.841Z,55.10
2018-03-31T19:39:03.435Z,55.10
2018-03-31T19:41:29.895Z,55.00
2018-03-31T19:43:56.703Z,55.40
2018-03-31T19:46:23.249Z,55.20
2018-03-31T19:48:50.079Z,55.30
2018-03-31T19:51:16.601Z,55.30
2018-03-31T19:53:43.097Z,55.30
2018-03-31T19:56:09.566Z,55.30
2018-03-31T19:58:36.417Z,55.30
2018-03-31T20:01:03.364Z,55.20
2018-03-31T20:03:29.881Z,55.10
2018-03-31T20:05:56.641Z,55.10
2018-03-31T20:08:23.117Z,55.10
2018-03-31T20:10:50.032Z,55.00
2018-03-31T20:13:16.562Z,55.10
2018-03-31T20:15:43.329Z,55.10
2018-03-31T20:18:10.212Z,55.10
2018-03-31T20:20:37.099Z,55.10
2018-03-31T20:23:04.308Z,55.20
2018-03-31T20:25:30.797Z,55.20
2018-03-31T20:27:57.253Z,55.10
2018-03-31T20:30:23.950Z,55.30
2018-03-31T20:32:51.670Z,55.40
2018-03-31T20:35:18.938Z,55.40
2018-03-31T20:37:45.521Z,55.40
2018-03-31T20:40:12.143Z,55.50
2018-03-31T20:42:39.829Z,55.50
2018-03-31T20:45:07.765Z,55.50
2018-03-31T20:47:34.579Z,55.40
2018-03-31T20:50:01.419Z,55.50
2018-03-31T20:52:28.305Z,55.80
2018-03-31T20:54:55.561Z,55.60
2018-03-31T20:57:23.584Z,55.60
2018-03-31T20:59:50.951Z,55.70
2018-03-31T21:02:19.241Z,55.60
2018-03-31T21:04:45.863Z,55.50
2018-03-31T21:07:12.329Z,55.60
2018-03-31T21:09:39.292Z,55.70
2018-03-31T21:12:05.989Z,55.80
2018-03-31T21:14:33.296Z,55.80
2018-03-31T21:17:00.912Z,55.80
2018-03-31T21:19:27.513Z,55.70
2018-03-31T21:21:55.215Z,55.90
2018-03-31T21:24:22.376Z,55.80
2018-03-31T21:26:48.886Z,55.90
2018-03-31T21:29:15.979Z,55.80
2018-03-31T21:31:42.607Z,56.00
2018-03-31T21:34:09.418Z,56.10
2018-03-31T21:36:36.252Z,56.10
2018-03-31T21:39:04.215Z,56.00
2018-03-31T21:41:31.343Z,56.10
2018-03-31T21:43:59.354Z,56.20
2018-03-31T21:46:27.155Z,56.30
2018-03-31T21:48:54.289Z,56.30
2018-03-31T21:51:20.840Z,56.30
2018-03-31T21:53:48.094Z,56.30
2018-03-31T21:56:14.550Z,56.30
2018-03-31T21:58:41.050Z,56.40
2018-03-31T22:01:07.507Z,56.30
2018-03-31T22:03:33.947Z,56.30
2018-03-31T22:06:01.198Z,56.80
2018-03-31T22:08:27.651Z,56.80
2018-03-31T22:10:54.135Z,56.40
2018-03-31T22:13:21.363Z,56.60
2018-03-31T22:15:47.835Z,56.60
2018-03-31T22:18:14.280Z,56.70
2018-03-31T22:20:40.754Z,56.70
2018-03-31T22:23:07.211Z,56.70
2018-03-31T22:25:33.695Z,56.70
2018-03-31T22:28:00.904Z,56.80
2018-03-31T22:30:27.382Z,56.80
2018-03-31T22:32:53.824Z,56.80
2018-03-31T22:35:20.318Z,57.30
2018-03-31T22:37:46.761Z,56.80
2018-03-31T22:40:13.265Z,57.30
2018-03-31T22:42:40.486Z,56.80
2018-03-31T22:45:06.952Z,56.80
2018-03-31T22:47:33.402Z,56.80
2018-03-31T22:49:59.886Z,56.90
2018-03-31T22:52:26.346Z,56.80
2018-03-31T22:54:52.812Z,56.90
2018-03-31T22:57:19.279Z,56.90
2018-03-31T22:59:45.758Z,56.90
2018-03-31T23:02:12.978Z,57.00
2018-03-31T23:04:39.472Z,57.00
2018-03-31T23:07:05.926Z,56.90
2018-03-31T23:09:32.392Z,57.00
2018-03-31T23:11:58.850Z,57.00
2018-03-31T23:14:25.344Z,57.00
2018-03-31T23:16:51.797Z,57.00
2018-03-31T23:19:18.297Z,57.00
2018-03-31T23:21:44.751Z,57.00
2018-03-31T23:24:11.231Z,57.00
2018-03-31T23:26:37.703Z,56.90
2018-03-31T23:29:04.182Z,57.00
2018-03-31T23:31:31.406Z,57.00
2018-03-31T23:33:57.901Z,57.00
2018-03-31T23:36:25.380Z,57.10
2018-03-31T23:38:51.926Z,57.00
2018-03-31T23:41:18.383Z,57.10
2018-03-31T23:43:44.848Z,57.10
2018-03-31T23:46:11.316Z,57.10
2018-03-31T23:48:37.765Z,57.00
2018-03-31T23:51:04.596Z,57.10
2018-03-31T23:53:31.102Z,57.10
2018-03-31T23:55:57.569Z,57.00
2018-03-31T23:58:24.803Z,57.20
